48D weather

Clare Municipal Airport
Clare, Michigan, United States

Public forecast

Using degrees Fahrenheit for public forecast. Weather courtesy of forecast.io.

METAR (pilot weather report)

Closest report is Mount Pleasant Municipal Airport, 12.8 nm (23.7 km) S. Retrieved 2019/09/17 03:37 UTC (0 seconds ago):

KMOP 170337Z AUTO 08006KT 7SM OVC003 17/17 A3017 RMK AO2 T01650165

TAF (pilot weather forecast)

Forecast is more than 12 hours old.

Closest forecast is MBS International Airport, 33.9 nm (62.8 km) ESE. Retrieved 2019/09/16 00:22 UTC (1 day ago):

TAF KMBS 162320Z 1700/1724 05005KT P6SM SKC FM170600 VRB03KT 3SM BR SCT008 FM170800 00000KT 2SM BR BKN005 TEMPO 1709/1713 1/2SM FG VV002 FM171400 VRB03KT 3SM BR BKN008 FM171600 06006KT P6SM SKC